createdAt,value
2023-02-06T00:00:48.206Z,959.68
2023-02-06T00:03:14.573Z,959.65
2023-02-06T00:05:40.979Z,959.71
2023-02-06T00:08:07.303Z,959.73
2023-02-06T00:10:33.644Z,959.72
2023-02-06T00:13:00.011Z,959.73
2023-02-06T00:15:26.379Z,959.73
2023-02-06T00:17:52.759Z,959.80
2023-02-06T00:20:19.136Z,959.80
2023-02-06T00:22:45.498Z,959.78
2023-02-06T00:25:11.871Z,959.78
2023-02-06T00:27:38.237Z,959.84
2023-02-06T00:30:04.599Z,959.81
2023-02-06T00:32:31.037Z,959.83
2023-02-06T00:34:57.291Z,959.78
2023-02-06T00:37:23.632Z,959.82
2023-02-06T00:39:50.009Z,959.87
2023-02-06T00:42:16.370Z,959.91
2023-02-06T00:44:42.756Z,959.91
2023-02-06T00:47:09.115Z,959.96
2023-02-06T00:49:35.449Z,960.01
2023-02-06T00:52:01.824Z,959.92
2023-02-06T00:54:28.275Z,960.00
2023-02-06T00:56:54.594Z,960.03
2023-02-06T00:59:20.989Z,960.02
2023-02-06T01:01:47.438Z,960.03
2023-02-06T01:04:13.761Z,960.12
2023-02-06T01:06:40.100Z,960.11
2023-02-06T01:09:06.452Z,960.08
2023-02-06T01:11:32.983Z,960.05
2023-02-06T01:13:59.497Z,960.11
2023-02-06T01:16:26.097Z,960.17
2023-02-06T01:18:52.577Z,960.13
2023-02-06T01:21:18.947Z,960.25
2023-02-06T01:23:45.417Z,960.29
2023-02-06T01:26:11.739Z,960.26
2023-02-06T01:28:38.115Z,960.27
2023-02-06T01:31:04.574Z,960.27
2023-02-06T01:33:30.785Z,960.34
2023-02-06T01:35:57.121Z,960.38
2023-02-06T01:38:23.498Z,960.35
2023-02-06T01:40:49.861Z,960.33
2023-02-06T01:43:16.239Z,960.32
2023-02-06T01:45:42.587Z,960.36
2023-02-06T01:48:08.943Z,960.37
2023-02-06T01:50:35.269Z,960.36
2023-02-06T01:53:01.651Z,960.41
2023-02-06T01:55:27.968Z,960.44
2023-02-06T01:57:54.310Z,960.41
2023-02-06T02:00:20.677Z,960.45
2023-02-06T02:02:47.011Z,960.32
2023-02-06T02:05:13.396Z,960.45
2023-02-06T02:07:39.738Z,960.42
2023-02-06T02:10:06.058Z,960.41
2023-02-06T02:12:32.485Z,960.38
2023-02-06T02:14:58.847Z,960.35
2023-02-06T02:17:25.221Z,960.34
2023-02-06T02:19:51.571Z,960.38
2023-02-06T02:22:17.958Z,960.48
2023-02-06T02:24:44.314Z,960.46
2023-02-06T02:27:10.697Z,960.44
2023-02-06T02:29:37.051Z,960.45
2023-02-06T02:32:03.453Z,960.53
2023-02-06T02:34:29.772Z,960.60
2023-02-06T02:36:56.160Z,960.60
2023-02-06T02:39:22.539Z,960.59
2023-02-06T02:41:48.916Z,960.61
2023-02-06T02:44:15.232Z,960.59
2023-02-06T02:46:41.590Z,960.57
2023-02-06T02:49:07.912Z,960.61
2023-02-06T02:51:34.266Z,960.64
2023-02-06T02:54:00.652Z,960.58
2023-02-06T02:56:26.982Z,960.56
2023-02-06T02:58:53.352Z,960.68
2023-02-06T03:01:19.820Z,960.69
2023-02-06T03:03:46.056Z,960.65
2023-02-06T03:06:12.393Z,960.71
2023-02-06T03:08:38.748Z,960.78
2023-02-06T03:11:05.159Z,960.79
2023-02-06T03:13:31.474Z,960.80
2023-02-06T03:15:57.814Z,960.84
2023-02-06T03:18:24.207Z,960.79
2023-02-06T03:20:50.542Z,960.76
2023-02-06T03:23:16.873Z,960.78
2023-02-06T03:25:43.251Z,960.79
2023-02-06T03:28:09.625Z,960.79
2023-02-06T03:30:35.972Z,960.83
2023-02-06T03:33:02.268Z,960.83
2023-02-06T03:35:28.835Z,960.87
2023-02-06T03:37:55.208Z,960.82
2023-02-06T03:40:21.590Z,960.86
2023-02-06T03:42:47.919Z,960.93
2023-02-06T03:45:14.268Z,960.84
2023-02-06T03:47:40.580Z,960.84
2023-02-06T03:50:06.974Z,960.83
2023-02-06T03:52:33.324Z,960.87
2023-02-06T03:54:59.720Z,960.86
2023-02-06T03:57:26.072Z,960.86
2023-02-06T03:59:52.408Z,960.87
2023-02-06T04:02:18.749Z,960.88
2023-02-06T04:04:45.120Z,960.92
2023-02-06T04:07:11.436Z,960.82
2023-02-06T04:09:37.845Z,960.84
2023-02-06T04:12:04.204Z,960.93
2023-02-06T04:14:30.545Z,960.91
2023-02-06T04:16:56.944Z,960.92
2023-02-06T04:19:23.288Z,960.95
2023-02-06T04:21:49.640Z,960.97
2023-02-06T04:24:16.051Z,961.01
2023-02-06T04:26:42.407Z,961.01
2023-02-06T04:29:08.752Z,961.03
2023-02-06T04:31:35.149Z,961.02
2023-02-06T04:34:01.494Z,961.09
2023-02-06T04:36:27.841Z,961.03
2023-02-06T04:38:54.189Z,961.04
2023-02-06T04:41:20.506Z,961.03
2023-02-06T04:43:46.879Z,961.04
2023-02-06T04:46:13.243Z,961.08
2023-02-06T04:48:39.586Z,961.04
2023-02-06T04:51:05.949Z,961.01
2023-02-06T04:53:32.331Z,961.04
2023-02-06T04:55:58.676Z,961.09
2023-02-06T04:58:25.002Z,961.06
2023-02-06T05:00:51.393Z,961.09
2023-02-06T05:03:17.908Z,961.14
2023-02-06T05:05:44.262Z,961.20
2023-02-06T05:08:10.621Z,961.18
2023-02-06T05:10:37.027Z,961.14
2023-02-06T05:13:03.707Z,961.28
2023-02-06T05:15:30.042Z,961.38
2023-02-06T05:17:56.372Z,961.36
2023-02-06T05:20:22.982Z,961.34
2023-02-06T05:22:49.282Z,961.33
2023-02-06T05:25:15.664Z,961.35
2023-02-06T05:27:42.022Z,961.41
2023-02-06T05:30:08.391Z,961.43
2023-02-06T05:32:34.678Z,961.49
2023-02-06T05:35:01.070Z,961.49
2023-02-06T05:37:27.423Z,961.48
2023-02-06T05:39:53.763Z,961.65
2023-02-06T05:42:20.128Z,961.66
2023-02-06T05:44:48.930Z,961.73
2023-02-06T05:47:15.244Z,961.61
2023-02-06T05:49:41.601Z,961.60
2023-02-06T05:52:08.329Z,961.62
2023-02-06T05:54:34.683Z,961.62
2023-02-06T05:57:01.065Z,961.63
2023-02-06T05:59:27.420Z,961.68
2023-02-06T06:01:53.739Z,961.75
2023-02-06T06:04:20.214Z,961.78
2023-02-06T06:06:46.519Z,961.81
2023-02-06T06:09:12.934Z,961.80
2023-02-06T06:11:39.289Z,961.78
2023-02-06T06:14:05.675Z,961.79
2023-02-06T06:16:32.016Z,961.80
2023-02-06T06:18:58.389Z,961.83
2023-02-06T06:21:24.697Z,961.83
2023-02-06T06:23:51.087Z,961.80
2023-02-06T06:26:17.439Z,961.77
2023-02-06T06:28:43.781Z,961.77
2023-02-06T06:31:10.236Z,961.80
2023-02-06T06:33:36.549Z,961.92
2023-02-06T06:36:02.955Z,961.86
2023-02-06T06:38:29.334Z,961.87
2023-02-06T06:40:55.750Z,961.88
2023-02-06T06:43:22.328Z,961.96
2023-02-06T06:45:48.657Z,961.93
2023-02-06T06:48:15.017Z,962.01
2023-02-06T06:50:42.308Z,962.01
2023-02-06T06:53:08.671Z,962.09
2023-02-06T06:55:35.309Z,962.15
2023-02-06T06:58:01.334Z,962.10
2023-02-06T07:00:27.717Z,962.12
2023-02-06T07:02:54.119Z,962.13
2023-02-06T07:05:20.466Z,962.15
2023-02-06T07:07:46.823Z,962.18
2023-02-06T07:10:13.432Z,962.20
2023-02-06T07:12:39.925Z,962.19
2023-02-06T07:15:06.299Z,962.21
2023-02-06T07:17:32.687Z,962.34
2023-02-06T07:19:59.053Z,962.32
2023-02-06T07:22:25.431Z,962.39
2023-02-06T07:24:54.124Z,962.38
2023-02-06T07:27:18.505Z,962.44
2023-02-06T07:29:44.852Z,962.38
2023-02-06T07:32:11.308Z,962.37
2023-02-06T07:34:37.610Z,962.38
2023-02-06T07:37:03.967Z,962.36
2023-02-06T07:39:30.561Z,962.34
2023-02-06T07:41:56.932Z,962.35
2023-02-06T07:44:23.238Z,962.41
2023-02-06T07:46:49.743Z,962.48
2023-02-06T07:49:16.125Z,962.50
2023-02-06T07:51:42.461Z,962.46
2023-02-06T07:54:08.966Z,962.48
2023-02-06T07:56:35.544Z,962.53
2023-02-06T07:59:01.935Z,962.55
2023-02-06T08:01:28.425Z,962.55
2023-02-06T08:03:54.783Z,962.54
2023-02-06T08:06:23.269Z,962.50
2023-02-06T08:08:47.444Z,962.45
2023-02-06T08:11:13.948Z,962.49
2023-02-06T08:13:40.276Z,962.49
2023-02-06T08:16:06.616Z,962.42
2023-02-06T08:18:33.030Z,962.37
2023-02-06T08:20:59.495Z,962.42
2023-02-06T08:23:25.822Z,962.47
2023-02-06T08:25:52.272Z,962.57
2023-02-06T08:28:18.677Z,962.58
2023-02-06T08:30:45.069Z,962.54
2023-02-06T08:33:11.366Z,962.60
2023-02-06T08:35:37.934Z,962.57
2023-02-06T08:38:04.106Z,962.59
2023-02-06T08:40:30.697Z,962.60
2023-02-06T08:42:57.055Z,962.64
2023-02-06T08:45:23.445Z,962.64
2023-02-06T08:47:49.779Z,962.66
2023-02-06T08:50:16.123Z,962.76
2023-02-06T08:52:42.494Z,962.72
2023-02-06T08:55:08.873Z,962.71
2023-02-06T08:57:35.242Z,962.71
2023-02-06T09:00:01.601Z,962.71
2023-02-06T09:02:27.971Z,962.81
2023-02-06T09:04:54.359Z,962.71
2023-02-06T09:07:21.006Z,962.75
2023-02-06T09:09:47.366Z,962.73
2023-02-06T09:12:13.784Z,962.80
2023-02-06T09:14:40.136Z,962.81
2023-02-06T09:17:06.466Z,962.77
2023-02-06T09:19:32.866Z,962.69
2023-02-06T09:21:59.179Z,962.74
2023-02-06T09:24:25.584Z,962.77
2023-02-06T09:26:59.878Z,962.80
2023-02-06T09:29:18.325Z,962.78
2023-02-06T09:31:44.700Z,962.76
2023-02-06T09:34:11.329Z,962.78
2023-02-06T09:36:37.652Z,962.74
2023-02-06T09:39:04.155Z,962.68
2023-02-06T09:41:30.440Z,962.68
2023-02-06T09:43:56.801Z,962.64
2023-02-06T09:46:23.504Z,962.64
2023-02-06T09:48:49.978Z,962.57
2023-02-06T09:51:16.303Z,962.52
2023-02-06T09:53:42.732Z,962.52
2023-02-06T09:56:09.046Z,962.51
2023-02-06T09:58:35.434Z,962.54
2023-02-06T10:01:02.103Z,962.40
2023-02-06T10:03:28.503Z,962.44
2023-02-06T10:05:54.953Z,962.41
2023-02-06T10:08:21.338Z,962.41
2023-02-06T10:10:47.664Z,962.40
2023-02-06T10:13:14.100Z,962.36
2023-02-06T10:15:40.440Z,962.30
2023-02-06T10:18:06.818Z,962.29
2023-02-06T10:20:33.220Z,962.22
2023-02-06T10:22:59.592Z,962.16
2023-02-06T10:25:25.965Z,962.16
2023-02-06T10:27:52.382Z,962.12
2023-02-06T10:30:18.705Z,962.17
2023-02-06T10:32:45.007Z,962.14
2023-02-06T10:35:11.319Z,962.09
2023-02-06T10:37:37.717Z,962.03
2023-02-06T10:40:04.098Z,961.99
2023-02-06T10:42:30.480Z,962.07
2023-02-06T10:45:03.559Z,962.09
2023-02-06T10:47:23.184Z,962.11
2023-02-06T10:49:49.546Z,962.07
2023-02-06T10:52:15.896Z,962.06
2023-02-06T10:54:42.275Z,962.08
2023-02-06T10:57:08.595Z,962.05
2023-02-06T10:59:34.932Z,962.00
2023-02-06T11:02:01.376Z,961.99
2023-02-06T11:04:27.732Z,962.03
2023-02-06T11:06:54.099Z,961.98
2023-02-06T11:09:20.451Z,962.04
2023-02-06T11:11:48.386Z,962.03
2023-02-06T11:14:13.199Z,962.04
2023-02-06T11:16:39.641Z,962.01
2023-02-06T11:19:05.978Z,961.94
2023-02-06T11:21:35.225Z,962.01
2023-02-06T11:24:01.609Z,962.00
2023-02-06T11:26:27.973Z,962.02
2023-02-06T11:28:54.295Z,962.06
2023-02-06T11:31:20.716Z,962.04
2023-02-06T11:33:47.052Z,962.08
2023-02-06T11:36:13.401Z,961.99
2023-02-06T11:38:39.726Z,961.92
2023-02-06T11:41:06.105Z,961.98
2023-02-06T11:43:32.534Z,961.89
2023-02-06T11:45:58.953Z,961.88
2023-02-06T11:48:25.248Z,961.96
2023-02-06T11:50:51.619Z,961.88
2023-02-06T11:53:17.944Z,961.85
2023-02-06T11:55:44.396Z,961.79
2023-02-06T11:58:10.751Z,961.75
2023-02-06T12:00:37.096Z,961.82
2023-02-06T12:03:03.677Z,961.78
2023-02-06T12:05:29.914Z,961.83
2023-02-06T12:07:56.237Z,961.82
2023-02-06T12:10:22.729Z,961.72
2023-02-06T12:12:49.233Z,961.75
2023-02-06T12:15:39.874Z,961.93
2023-02-06T12:17:42.004Z,961.79
2023-02-06T12:20:08.403Z,961.75
2023-02-06T12:22:34.772Z,961.65
2023-02-06T12:25:01.170Z,961.77
2023-02-06T12:27:27.859Z,961.77
2023-02-06T12:29:54.188Z,961.82
2023-02-06T12:32:20.545Z,961.81
2023-02-06T12:34:46.933Z,961.87
2023-02-06T12:37:13.350Z,961.90
2023-02-06T12:39:39.738Z,961.85
2023-02-06T12:42:06.047Z,961.91
2023-02-06T12:44:32.655Z,961.89
2023-02-06T12:46:59.013Z,961.92
2023-02-06T12:49:25.409Z,961.91
2023-02-06T12:51:51.741Z,961.89
2023-02-06T12:54:18.117Z,961.95
2023-02-06T12:56:44.456Z,961.74
2023-02-06T12:59:10.873Z,962.00
2023-02-06T13:01:37.315Z,962.02
2023-02-06T13:04:03.598Z,962.05
2023-02-06T13:06:29.971Z,962.10
2023-02-06T13:08:56.355Z,962.05
2023-02-06T13:11:22.677Z,962.15
2023-02-06T13:13:49.086Z,962.10
2023-02-06T13:16:17.817Z,962.22
2023-02-06T13:18:41.824Z,962.27
2023-02-06T13:21:08.157Z,962.27
2023-02-06T13:23:36.960Z,962.30
2023-02-06T13:26:03.309Z,962.28
2023-02-06T13:28:29.765Z,962.27
2023-02-06T13:30:56.657Z,962.29
2023-02-06T13:33:23.153Z,962.31
2023-02-06T13:35:49.569Z,962.35
2023-02-06T13:38:15.926Z,962.33
2023-02-06T13:40:42.299Z,962.32
2023-02-06T13:43:08.699Z,962.30
2023-02-06T13:45:35.140Z,962.30
2023-02-06T13:48:01.424Z,962.39
2023-02-06T13:50:27.878Z,962.36
2023-02-06T13:52:54.247Z,962.41
2023-02-06T13:55:20.562Z,962.43
2023-02-06T13:57:47.006Z,962.44
2023-02-06T14:00:13.731Z,962.36
2023-02-06T14:02:40.088Z,962.45
2023-02-06T14:05:06.531Z,962.50
2023-02-06T14:07:32.833Z,962.46
2023-02-06T14:09:59.210Z,962.54
2023-02-06T14:12:25.612Z,962.61
2023-02-06T14:14:52.018Z,962.61
2023-02-06T14:17:18.773Z,962.58
2023-02-06T14:19:45.094Z,962.65
2023-02-06T14:22:11.461Z,962.60
2023-02-06T14:24:37.801Z,962.68
2023-02-06T14:27:04.376Z,962.68
2023-02-06T14:29:30.774Z,962.77
2023-02-06T14:31:57.131Z,962.89
2023-02-06T14:34:23.434Z,962.81
2023-02-06T14:36:50.074Z,962.82
2023-02-06T14:39:16.395Z,962.80
2023-02-06T14:41:42.743Z,962.81
2023-02-06T14:44:10.586Z,962.80
2023-02-06T14:46:35.548Z,962.86
2023-02-06T14:49:01.905Z,962.88
2023-02-06T14:51:28.287Z,962.90
2023-02-06T14:53:54.821Z,962.89
2023-02-06T14:56:22.498Z,962.87
2023-02-06T14:58:47.537Z,962.91
2023-02-06T15:01:14.286Z,962.98
2023-02-06T15:03:40.691Z,962.95
2023-02-06T15:06:07.038Z,962.88
2023-02-06T15:08:33.558Z,962.97
2023-02-06T15:11:00.757Z,962.96
2023-02-06T15:13:27.130Z,963.01
2023-02-06T15:15:53.482Z,962.97
2023-02-06T15:18:19.843Z,962.97
2023-02-06T15:20:46.189Z,962.98
2023-02-06T15:23:18.021Z,963.06
2023-02-06T15:25:41.438Z,963.12
2023-02-06T15:28:07.913Z,963.10
2023-02-06T15:30:34.651Z,963.14
2023-02-06T15:33:00.978Z,963.17
2023-02-06T15:35:27.962Z,963.28
2023-02-06T15:37:54.413Z,963.32
2023-02-06T15:40:20.943Z,963.34
2023-02-06T15:42:47.287Z,963.36
2023-02-06T15:45:13.682Z,963.36
2023-02-06T15:47:40.031Z,963.44
2023-02-06T15:50:06.374Z,963.45
2023-02-06T15:52:32.851Z,963.53
2023-02-06T15:54:59.206Z,963.55
2023-02-06T15:57:25.549Z,963.62
2023-02-06T15:59:51.943Z,963.64
2023-02-06T16:02:18.296Z,963.69
2023-02-06T16:04:44.684Z,963.72
2023-02-06T16:07:11.171Z,963.71
2023-02-06T16:09:39.382Z,963.80
2023-02-06T16:12:05.761Z,963.78
2023-02-06T16:14:32.113Z,963.77
2023-02-06T16:16:58.606Z,963.81
2023-02-06T16:19:25.108Z,963.77
2023-02-06T16:21:51.494Z,963.83
2023-02-06T16:24:17.835Z,963.93
2023-02-06T16:26:44.277Z,963.93
2023-02-06T16:29:10.883Z,963.95
2023-02-06T16:31:37.284Z,964.01
2023-02-06T16:34:03.706Z,964.06
2023-02-06T16:36:30.063Z,964.04
2023-02-06T16:39:03.631Z,964.10
2023-02-06T16:41:22.974Z,964.09
2023-02-06T16:43:49.342Z,964.13
2023-02-06T16:46:15.989Z,964.13
2023-02-06T16:48:42.249Z,964.17
2023-02-06T16:51:08.648Z,964.26
2023-02-06T16:53:35.076Z,964.21
2023-02-06T16:56:01.464Z,964.22
2023-02-06T16:58:27.768Z,964.23
2023-02-06T17:00:54.176Z,964.25
2023-02-06T17:03:20.564Z,964.22
2023-02-06T17:05:46.995Z,964.25
2023-02-06T17:08:13.444Z,964.32
2023-02-06T17:10:39.852Z,964.36
2023-02-06T17:13:06.215Z,964.38
2023-02-06T17:15:32.621Z,964.43
2023-02-06T17:17:58.867Z,964.44
2023-02-06T17:20:25.271Z,964.48
2023-02-06T17:22:51.615Z,964.60
2023-02-06T17:25:17.955Z,964.68
2023-02-06T17:27:44.334Z,964.58
2023-02-06T17:30:10.704Z,964.59
2023-02-06T17:32:37.164Z,964.64
2023-02-06T17:35:03.533Z,964.70
2023-02-06T17:37:29.928Z,964.66
2023-02-06T17:39:56.271Z,964.70
2023-02-06T17:42:23.023Z,964.69
2023-02-06T17:44:49.420Z,964.73
2023-02-06T17:47:15.811Z,964.67
2023-02-06T17:49:42.588Z,964.66
2023-02-06T17:52:08.931Z,964.67
2023-02-06T17:54:35.322Z,964.77
2023-02-06T17:57:01.873Z,964.74
2023-02-06T17:59:28.223Z,964.75
2023-02-06T18:01:55.717Z,964.79
2023-02-06T18:04:21.980Z,964.73
2023-02-06T18:06:48.400Z,964.79
2023-02-06T18:09:14.800Z,964.81
2023-02-06T18:11:41.139Z,964.75
2023-02-06T18:14:08.057Z,964.76
2023-02-06T18:16:34.657Z,964.72
2023-02-06T18:19:01.099Z,964.72
2023-02-06T18:21:27.430Z,964.71
2023-02-06T18:23:53.882Z,964.72
2023-02-06T18:26:20.252Z,964.67
2023-02-06T18:28:46.600Z,964.77
2023-02-06T18:31:13.374Z,964.75
2023-02-06T18:33:42.018Z,964.80
2023-02-06T18:36:08.371Z,964.79
2023-02-06T18:38:34.737Z,964.82
2023-02-06T18:41:02.293Z,964.89
2023-02-06T18:43:28.648Z,964.86
2023-02-06T18:45:55.093Z,964.82
2023-02-06T18:48:21.530Z,964.83
2023-02-06T18:50:47.851Z,964.79
2023-02-06T18:53:14.235Z,964.82
2023-02-06T18:55:40.557Z,964.78
2023-02-06T18:58:06.936Z,964.80
2023-02-06T19:00:33.492Z,964.87
2023-02-06T19:02:59.882Z,964.86
2023-02-06T19:05:26.240Z,964.92
2023-02-06T19:07:52.706Z,964.94
2023-02-06T19:10:19.045Z,964.91
2023-02-06T19:12:45.432Z,964.92
2023-02-06T19:15:11.796Z,964.97
2023-02-06T19:17:38.304Z,964.91
2023-02-06T19:20:04.662Z,964.89
2023-02-06T19:22:31.002Z,964.96
2023-02-06T19:24:57.750Z,964.86
2023-02-06T19:27:24.156Z,964.88
2023-02-06T19:29:50.521Z,964.93
2023-02-06T19:32:16.944Z,964.94
2023-02-06T19:34:43.326Z,964.97
2023-02-06T19:37:09.708Z,964.99
2023-02-06T19:39:36.076Z,964.96
2023-02-06T19:42:03.007Z,964.98
2023-02-06T19:44:29.020Z,965.01
2023-02-06T19:46:55.480Z,965.04
2023-02-06T19:49:21.867Z,965.03
2023-02-06T19:51:48.254Z,964.96
2023-02-06T19:54:14.700Z,964.91
2023-02-06T19:56:41.082Z,965.02
2023-02-06T19:59:08.457Z,965.06
2023-02-06T20:01:34.806Z,965.04
2023-02-06T20:04:01.214Z,965.06
2023-02-06T20:06:28.348Z,965.11
2023-02-06T20:08:54.323Z,965.04
2023-02-06T20:11:20.724Z,965.09
2023-02-06T20:13:48.280Z,965.05
2023-02-06T20:16:14.812Z,965.00
2023-02-06T20:18:42.163Z,965.06
2023-02-06T20:21:08.538Z,965.03
2023-02-06T20:23:35.110Z,965.06
2023-02-06T20:26:01.490Z,965.02
2023-02-06T20:28:27.799Z,965.02
2023-02-06T20:30:54.339Z,964.99
2023-02-06T20:33:20.581Z,965.04
2023-02-06T20:35:46.926Z,965.09
2023-02-06T20:38:13.378Z,965.15
2023-02-06T20:40:39.715Z,965.13
2023-02-06T20:43:06.153Z,965.15
2023-02-06T20:45:32.855Z,965.18
2023-02-06T20:47:59.225Z,965.11
2023-02-06T20:50:28.487Z,965.12
2023-02-06T20:52:52.261Z,965.11
2023-02-06T20:55:18.676Z,965.12
2023-02-06T20:57:45.038Z,965.10
2023-02-06T21:00:11.430Z,965.20
2023-02-06T21:02:37.858Z,965.21
2023-02-06T21:05:04.152Z,965.23
2023-02-06T21:07:30.568Z,965.17
2023-02-06T21:09:56.911Z,965.12
2023-02-06T21:12:23.288Z,965.11
2023-02-06T21:14:49.713Z,965.06
2023-02-06T21:17:16.027Z,965.08
2023-02-06T21:19:42.397Z,965.05
2023-02-06T21:22:08.838Z,965.07
2023-02-06T21:24:35.230Z,965.03
2023-02-06T21:27:01.630Z,965.01
2023-02-06T21:29:27.988Z,965.02
2023-02-06T21:32:11.150Z,965.04
2023-02-06T21:34:20.799Z,965.08
2023-02-06T21:36:47.180Z,965.03
2023-02-06T21:39:13.555Z,965.13
2023-02-06T21:41:39.913Z,965.08
2023-02-06T21:44:06.501Z,965.14
2023-02-06T21:46:33.126Z,965.13
2023-02-06T21:48:59.450Z,965.11
2023-02-06T21:51:25.775Z,965.15
2023-02-06T21:53:52.128Z,965.24
2023-02-06T21:56:18.547Z,965.21
2023-02-06T21:58:44.929Z,965.26
2023-02-06T22:01:11.325Z,965.28
2023-02-06T22:03:37.626Z,965.26
2023-02-06T22:06:03.965Z,965.32
2023-02-06T22:08:30.355Z,965.37
2023-02-06T22:10:56.943Z,965.36
2023-02-06T22:13:23.288Z,965.32
2023-02-06T22:15:49.699Z,965.39
2023-02-06T22:18:16.025Z,965.37
2023-02-06T22:20:42.349Z,965.38
2023-02-06T22:23:08.691Z,965.37
2023-02-06T22:25:35.293Z,965.41
2023-02-06T22:28:01.535Z,965.40
2023-02-06T22:30:27.835Z,965.41
2023-02-06T22:32:54.236Z,965.43
2023-02-06T22:35:20.575Z,965.42
2023-02-06T22:37:46.912Z,965.47
2023-02-06T22:40:13.329Z,965.41
2023-02-06T22:42:39.720Z,965.49
2023-02-06T22:45:06.116Z,965.44
2023-02-06T22:47:32.491Z,965.40
2023-02-06T22:49:58.819Z,965.40
2023-02-06T22:52:25.185Z,965.52
2023-02-06T22:54:51.836Z,965.45
2023-02-06T22:57:18.174Z,965.43
2023-02-06T22:59:44.564Z,965.46
2023-02-06T23:02:11.306Z,965.48
2023-02-06T23:04:37.676Z,965.45
2023-02-06T23:07:04.145Z,965.51
2023-02-06T23:09:30.777Z,965.50
2023-02-06T23:11:57.126Z,965.46
2023-02-06T23:14:23.750Z,965.49
2023-02-06T23:16:50.086Z,965.54
2023-02-06T23:19:16.421Z,965.53
2023-02-06T23:21:43.030Z,965.49
2023-02-06T23:24:09.322Z,965.54
2023-02-06T23:26:35.774Z,965.52
2023-02-06T23:29:02.143Z,965.52
2023-02-06T23:31:28.526Z,965.48
2023-02-06T23:33:54.809Z,965.57
2023-02-06T23:36:21.257Z,965.60
2023-02-06T23:38:47.594Z,965.56
2023-02-06T23:41:13.996Z,965.63
2023-02-06T23:43:40.428Z,965.57
2023-02-06T23:46:06.877Z,965.58
2023-02-06T23:48:33.129Z,965.59
2023-02-06T23:50:59.890Z,965.58
2023-02-06T23:53:26.240Z,965.60
2023-02-06T23:55:52.590Z,965.61
2023-02-06T23:58:18.961Z,965.62
